North Hudson, Wisconsin
Current Conditions -  °F | °C
As of 5:31 AM on Friday 24 Oct 2014 (Local Time) from K21D Reporting Station
Haze Haze  
Wind Chill:   Ceiling: Unl
Heat Index:   Visibility: 5mi
Dew Point:   Wind: 0mph
Humidity: 100%   Direction: NA
Pressure: 29.94"   Gusts: NA
Location:  44.9743°N, 92.6899°W
Report Text: K21D 241031Z AUTO 00000KT 5SM BR CLR 07/07 A2994 RMK AO2
Loading
Personal Weather Stations






























Interactive Weather Map
Tropical Storm Tracking
New forecast layout! Learn more

10-Day Weather Forecast

Advertisements
Track Severe Weather on mobile